createdAt,value
2023-02-09T00:00:34.588Z,80.38
2023-02-09T00:03:04.407Z,80.45
2023-02-09T00:05:34.246Z,80.39
2023-02-09T00:08:07.046Z,80.41
2023-02-09T00:10:36.839Z,80.52
2023-02-09T00:13:19.150Z,80.52
2023-02-09T00:15:52.091Z,80.54
2023-02-09T00:18:22.832Z,80.68
2023-02-09T00:20:58.676Z,80.80
2023-02-09T00:23:32.087Z,80.75
2023-02-09T00:26:02.973Z,80.70
2023-02-09T00:28:33.505Z,80.67
2023-02-09T00:31:03.385Z,80.81
2023-02-09T00:33:33.133Z,80.84
2023-02-09T00:36:02.905Z,80.79
2023-02-09T00:38:35.362Z,80.77
2023-02-09T00:41:06.089Z,80.80
2023-02-09T00:43:37.163Z,80.82
2023-02-09T00:46:07.159Z,80.75
2023-02-09T00:48:37.276Z,80.75
2023-02-09T00:51:08.286Z,80.78
2023-02-09T00:53:40.654Z,80.70
2023-02-09T00:56:10.551Z,80.77
2023-02-09T00:58:40.365Z,80.72
2023-02-09T01:01:13.654Z,80.63
2023-02-09T01:03:44.026Z,80.58
2023-02-09T01:06:14.014Z,80.50
2023-02-09T01:08:46.439Z,80.54
2023-02-09T01:11:18.488Z,80.64
2023-02-09T01:13:48.907Z,80.67
2023-02-09T01:16:20.725Z,80.54
2023-02-09T01:18:50.577Z,80.57
2023-02-09T01:21:22.470Z,80.86
2023-02-09T01:23:57.344Z,80.64
2023-02-09T01:26:27.233Z,80.71
2023-02-09T01:28:57.839Z,80.77
2023-02-09T01:31:30.592Z,80.78
2023-02-09T01:34:03.123Z,80.74
2023-02-09T01:36:34.225Z,80.74
2023-02-09T01:39:06.998Z,80.69
2023-02-09T01:41:37.797Z,80.69
2023-02-09T01:44:10.526Z,80.67
2023-02-09T01:46:40.963Z,80.77
2023-02-09T01:49:14.365Z,80.72
2023-02-09T01:51:48.051Z,80.63
2023-02-09T01:54:25.118Z,80.60
2023-02-09T01:57:00.807Z,80.62
2023-02-09T01:59:31.474Z,80.72
2023-02-09T02:02:01.398Z,80.61
2023-02-09T02:04:31.641Z,80.59
2023-02-09T02:07:11.324Z,80.55
2023-02-09T02:09:43.776Z,80.60
2023-02-09T02:12:13.704Z,80.63
2023-02-09T02:14:43.632Z,80.59
2023-02-09T02:17:28.032Z,80.50
2023-02-09T02:20:23.699Z,80.54
2023-02-09T02:23:03.366Z,80.53
2023-02-09T02:26:02.912Z,80.51
2023-02-09T02:29:15.826Z,80.54
2023-02-09T02:32:12.861Z,80.38
2023-02-09T02:34:48.479Z,80.41
2023-02-09T02:37:30.060Z,80.24
2023-02-09T02:40:08.875Z,80.33
2023-02-09T02:42:54.752Z,80.38
2023-02-09T02:45:35.710Z,80.36
2023-02-09T02:48:21.442Z,80.39
2023-02-09T02:50:57.688Z,80.47
2023-02-09T02:53:32.366Z,80.50
2023-02-09T02:56:08.406Z,80.41
2023-02-09T02:58:42.029Z,80.34
2023-02-09T03:01:16.121Z,80.33
2023-02-09T03:03:50.378Z,80.52
2023-02-09T03:06:21.311Z,80.48
2023-02-09T03:08:53.509Z,80.51
2023-02-09T03:11:25.237Z,80.44
2023-02-09T03:14:07.931Z,80.57
2023-02-09T03:16:47.342Z,80.66
2023-02-09T03:19:27.953Z,80.63
2023-02-09T03:22:01.653Z,80.65
2023-02-09T03:24:39.774Z,80.64
2023-02-09T03:27:18.316Z,80.71
2023-02-09T03:29:50.864Z,80.73
2023-02-09T03:32:22.727Z,80.75
2023-02-09T03:34:55.595Z,80.80
2023-02-09T03:37:26.263Z,80.73
2023-02-09T03:39:56.088Z,80.79
2023-02-09T03:42:25.970Z,80.82
2023-02-09T03:44:55.784Z,80.89
2023-02-09T03:47:25.667Z,80.89
2023-02-09T03:49:58.196Z,80.93
2023-02-09T03:52:28.400Z,81.02
2023-02-09T03:54:58.196Z,80.99
2023-02-09T03:57:28.271Z,81.03
2023-02-09T03:59:58.090Z,81.06
2023-02-09T04:02:28.014Z,81.04
2023-02-09T04:05:00.727Z,81.07
2023-02-09T04:07:30.859Z,81.17
2023-02-09T04:10:00.703Z,81.20
2023-02-09T04:12:30.599Z,81.27
2023-02-09T04:15:00.500Z,81.20
2023-02-09T04:17:30.406Z,81.14
2023-02-09T04:20:02.855Z,81.18
2023-02-09T04:22:32.739Z,81.19
2023-02-09T04:25:02.559Z,81.24
2023-02-09T04:27:32.372Z,81.37
2023-02-09T04:30:02.213Z,81.32
2023-02-09T04:32:32.438Z,81.31
2023-02-09T04:35:04.873Z,81.29
2023-02-09T04:37:34.794Z,81.35
2023-02-09T04:40:06.783Z,81.35
2023-02-09T04:42:37.505Z,81.47
2023-02-09T04:45:08.839Z,81.45
2023-02-09T04:47:38.819Z,81.45
2023-02-09T04:50:12.062Z,81.54
2023-02-09T04:52:42.209Z,81.47
2023-02-09T04:55:12.141Z,81.47
2023-02-09T04:57:54.414Z,81.66
2023-02-09T05:00:24.657Z,81.63
2023-02-09T05:02:54.515Z,81.69
2023-02-09T05:05:27.008Z,81.62
2023-02-09T05:07:56.910Z,81.90
2023-02-09T05:10:26.924Z,81.92
2023-02-09T05:12:56.810Z,81.90
2023-02-09T05:15:26.778Z,81.96
2023-02-09T05:17:56.735Z,82.00
2023-02-09T05:20:29.233Z,82.09
2023-02-09T05:22:59.101Z,82.00
2023-02-09T05:25:29.318Z,82.14
2023-02-09T05:27:59.258Z,82.15
2023-02-09T05:30:29.536Z,82.28
2023-02-09T05:32:59.423Z,82.29
2023-02-09T05:35:32.001Z,82.33
2023-02-09T05:38:01.818Z,82.34
2023-02-09T05:40:31.766Z,82.28
2023-02-09T05:43:03.543Z,82.41
2023-02-09T05:45:33.401Z,82.46
2023-02-09T05:48:03.266Z,82.37
2023-02-09T05:50:36.216Z,82.51
2023-02-09T05:53:06.322Z,82.49
2023-02-09T05:55:36.130Z,82.59
2023-02-09T05:58:06.015Z,82.59
2023-02-09T06:00:35.842Z,82.70
2023-02-09T06:03:05.737Z,82.57
2023-02-09T06:05:38.151Z,82.72
2023-02-09T06:08:08.096Z,82.77
2023-02-09T06:10:37.867Z,82.75
2023-02-09T06:13:07.710Z,82.80
2023-02-09T06:15:37.509Z,82.82
2023-02-09T06:18:07.728Z,82.85
2023-02-09T06:20:40.350Z,82.79
2023-02-09T06:23:10.146Z,82.81
2023-02-09T06:25:41.738Z,82.95
2023-02-09T06:28:11.581Z,83.03
2023-02-09T06:30:41.475Z,83.08
2023-02-09T06:33:11.366Z,82.95
2023-02-09T06:35:43.750Z,82.96
2023-02-09T06:38:13.874Z,83.17
2023-02-09T06:40:43.925Z,83.04
2023-02-09T06:43:13.982Z,83.12
2023-02-09T06:45:44.367Z,83.10
2023-02-09T06:48:14.177Z,83.09
2023-02-09T06:50:47.017Z,83.18
2023-02-09T06:53:18.824Z,83.18
2023-02-09T06:55:48.778Z,83.17
2023-02-09T06:58:18.545Z,83.23
2023-02-09T07:00:48.515Z,83.19
2023-02-09T07:03:18.416Z,83.22
2023-02-09T07:05:50.828Z,83.29
2023-02-09T07:08:20.585Z,83.38
2023-02-09T07:10:50.457Z,83.29
2023-02-09T07:13:20.271Z,83.41
2023-02-09T07:15:58.008Z,83.40
2023-02-09T07:18:27.911Z,83.41
2023-02-09T07:21:02.148Z,83.37
2023-02-09T07:23:32.479Z,83.44
2023-02-09T07:26:06.159Z,83.57
2023-02-09T07:28:37.637Z,83.46
2023-02-09T07:31:09.254Z,83.48
2023-02-09T07:33:40.057Z,83.67
2023-02-09T07:36:15.706Z,83.51
2023-02-09T07:38:46.253Z,83.74
2023-02-09T07:41:19.775Z,83.79
2023-02-09T07:43:50.282Z,83.76
2023-02-09T07:46:23.462Z,83.88
2023-02-09T07:48:53.307Z,84.03
2023-02-09T07:51:26.784Z,83.98
2023-02-09T07:53:57.700Z,84.12
2023-02-09T07:56:28.136Z,84.22
2023-02-09T07:58:59.023Z,84.29
2023-02-09T08:01:29.351Z,84.36
2023-02-09T08:03:59.164Z,84.47
2023-02-09T08:06:42.415Z,84.62
2023-02-09T08:09:14.460Z,84.60
2023-02-09T08:11:50.157Z,84.86
2023-02-09T08:14:23.633Z,84.90
2023-02-09T08:17:16.221Z,85.15
2023-02-09T08:19:46.858Z,85.22
2023-02-09T08:22:22.440Z,85.36
2023-02-09T08:24:53.609Z,85.30
2023-02-09T08:27:23.538Z,85.40
2023-02-09T08:29:53.544Z,85.50
2023-02-09T08:32:23.347Z,85.61
2023-02-09T08:34:53.251Z,85.69
2023-02-09T08:37:25.608Z,85.96
2023-02-09T08:39:55.432Z,85.81
2023-02-09T08:42:25.227Z,85.97
2023-02-09T08:44:54.973Z,86.02
2023-02-09T08:47:24.731Z,86.09
2023-02-09T08:49:54.485Z,86.33
2023-02-09T08:52:26.834Z,86.31
2023-02-09T08:54:56.620Z,86.58
2023-02-09T08:57:41.653Z,86.65
2023-02-09T09:00:14.351Z,86.68
2023-02-09T09:02:44.153Z,86.54
2023-02-09T09:05:13.964Z,86.85
2023-02-09T09:07:46.370Z,86.88
2023-02-09T09:10:16.161Z,86.88
2023-02-09T09:12:45.986Z,86.85
2023-02-09T09:15:15.782Z,87.16
2023-02-09T09:17:45.555Z,87.05
2023-02-09T09:20:16.079Z,87.17
2023-02-09T09:22:48.480Z,87.11
2023-02-09T09:25:18.751Z,87.29
2023-02-09T09:27:48.561Z,87.43
2023-02-09T09:30:18.415Z,87.42
2023-02-09T09:32:48.236Z,87.28
2023-02-09T09:48:54.405Z,87.59
2023-02-09T09:51:30.438Z,87.65
2023-02-09T09:54:02.416Z,87.83
2023-02-09T09:56:33.341Z,87.77
2023-02-09T09:59:04.853Z,87.90
2023-02-09T10:01:35.891Z,87.89
2023-02-09T10:04:14.748Z,88.06
2023-02-09T10:06:46.976Z,88.05
2023-02-09T10:09:27.254Z,88.17
2023-02-09T10:12:08.384Z,87.97
2023-02-09T10:14:38.115Z,88.24
2023-02-09T10:17:09.016Z,88.30
2023-02-09T10:19:41.456Z,88.21
2023-02-09T10:22:15.684Z,88.28
2023-02-09T10:24:45.425Z,88.26
2023-02-09T10:27:22.396Z,88.37
2023-02-09T10:29:52.153Z,88.38
2023-02-09T10:32:23.902Z,88.65
2023-02-09T10:34:58.012Z,88.69
2023-02-09T10:37:35.910Z,88.61
2023-02-09T10:40:15.643Z,88.81
2023-02-09T10:42:56.772Z,88.80
2023-02-09T10:45:29.954Z,88.85
2023-02-09T10:48:01.703Z,89.05
2023-02-09T10:50:34.147Z,89.15
2023-02-09T10:53:05.750Z,89.00
2023-02-09T10:55:39.456Z,89.22
2023-02-09T10:58:17.514Z,89.12
2023-02-09T11:00:53.784Z,89.32
2023-02-09T11:03:27.958Z,89.34
2023-02-09T11:06:06.222Z,89.51
2023-02-09T11:08:43.266Z,89.36
2023-02-09T11:11:28.773Z,89.50
2023-02-09T11:13:58.852Z,89.69
2023-02-09T11:17:06.986Z,89.66
2023-02-09T11:19:57.463Z,89.81
2023-02-09T11:22:50.319Z,89.92
2023-02-09T11:25:26.074Z,90.12
2023-02-09T11:28:21.630Z,90.12
2023-02-09T11:31:14.586Z,90.08
2023-02-09T11:33:51.763Z,90.33
2023-02-09T11:36:44.190Z,90.28
2023-02-09T11:39:23.087Z,90.38
2023-02-09T11:42:13.479Z,90.61
2023-02-09T11:44:49.648Z,90.71
2023-02-09T11:47:25.537Z,90.78
2023-02-09T11:49:57.067Z,90.72
2023-02-09T11:52:34.350Z,90.96
2023-02-09T11:55:20.988Z,90.95
2023-02-09T11:57:55.766Z,91.05
2023-02-09T12:00:30.439Z,91.12
2023-02-09T12:03:05.038Z,91.29
2023-02-09T12:05:35.129Z,91.40
2023-02-09T12:08:22.475Z,91.31
2023-02-09T12:11:04.206Z,91.30
2023-02-09T12:13:43.287Z,91.25
2023-02-09T12:16:19.072Z,91.48
2023-02-09T12:18:49.311Z,91.42
2023-02-09T12:21:32.575Z,91.35
2023-02-09T12:24:03.379Z,91.49
2023-02-09T12:26:46.765Z,91.51
2023-02-09T12:29:35.867Z,91.63
2023-02-09T12:32:30.879Z,91.72
2023-02-09T12:35:27.279Z,91.77
2023-02-09T12:38:17.232Z,91.79
2023-02-09T12:41:04.914Z,91.96
2023-02-09T12:43:38.854Z,91.84
2023-02-09T12:46:51.992Z,92.14
2023-02-09T12:49:25.591Z,92.01
2023-02-09T12:52:16.681Z,92.26
2023-02-09T12:54:50.367Z,92.26
2023-02-09T12:57:56.106Z,92.41
2023-02-09T13:00:54.839Z,92.51
2023-02-09T13:03:27.788Z,92.62
2023-02-09T13:06:01.517Z,92.73
2023-02-09T13:08:38.783Z,92.72
2023-02-09T13:11:21.253Z,92.87
2023-02-09T13:13:56.202Z,92.95
2023-02-09T13:16:57.715Z,93.22
2023-02-09T13:19:55.895Z,93.34
2023-02-09T13:22:38.146Z,93.43
2023-02-09T13:25:16.662Z,93.47
2023-02-09T13:27:48.214Z,93.67
2023-02-09T13:30:28.235Z,93.65
2023-02-09T13:33:10.707Z,93.73
2023-02-09T13:35:54.755Z,93.84
2023-02-09T13:38:24.741Z,93.91
2023-02-09T13:40:55.597Z,93.98
2023-02-09T13:43:31.276Z,94.18
2023-02-09T13:46:02.580Z,94.12
2023-02-09T13:48:37.871Z,94.21
2023-02-09T13:51:17.486Z,94.27
2023-02-09T13:53:59.150Z,94.58
2023-02-09T13:56:29.661Z,94.68
2023-02-09T13:59:00.253Z,94.61
2023-02-09T14:01:33.265Z,94.78
2023-02-09T14:04:10.706Z,94.86
2023-02-09T14:06:44.335Z,94.86
2023-02-09T14:09:20.238Z,95.06
2023-02-09T14:11:54.119Z,95.16
2023-02-09T14:14:28.771Z,95.34
2023-02-09T14:17:24.698Z,95.47
2023-02-09T14:19:59.489Z,95.55
2023-02-09T14:22:34.539Z,95.75
2023-02-09T14:25:19.994Z,95.86
2023-02-09T14:27:51.250Z,96.01
2023-02-09T14:30:23.833Z,96.03
2023-02-09T14:32:58.804Z,96.16
2023-02-09T14:35:33.686Z,96.28
2023-02-09T14:38:05.211Z,96.28
2023-02-09T14:40:37.574Z,96.60
2023-02-09T14:43:25.179Z,96.62
2023-02-09T14:46:01.934Z,96.73
2023-02-09T14:48:33.135Z,96.86
2023-02-09T14:51:15.584Z,97.05
2023-02-09T14:53:47.138Z,97.26
2023-02-09T14:56:24.603Z,97.32
2023-02-09T14:58:54.527Z,97.46
2023-02-09T15:01:25.123Z,97.71
2023-02-09T15:03:54.990Z,97.73
2023-02-09T15:06:33.156Z,97.96
2023-02-09T15:09:05.305Z,98.08
2023-02-09T15:11:48.343Z,98.16
2023-02-09T15:14:18.960Z,98.29
2023-02-09T15:16:49.621Z,98.49
2023-02-09T15:19:23.555Z,98.67
2023-02-09T15:22:06.659Z,98.81
2023-02-09T15:24:39.164Z,98.91
2023-02-09T15:27:09.384Z,99.05
2023-02-09T15:29:39.161Z,99.23
2023-02-09T15:32:17.040Z,99.24
2023-02-09T15:34:47.508Z,99.36
2023-02-09T15:37:24.675Z,99.41
2023-02-09T15:39:59.455Z,99.56
2023-02-09T15:42:41.629Z,99.62
2023-02-09T15:45:34.790Z,99.84
2023-02-09T15:48:04.682Z,99.66
2023-02-09T15:50:35.614Z,99.92
2023-02-09T15:53:11.081Z,99.91
2023-02-09T15:55:42.632Z,100.00
2023-02-09T15:58:16.872Z,100.00
2023-02-09T16:00:47.046Z,100.00
2023-02-09T16:03:20.561Z,100.00
2023-02-09T16:05:53.809Z,100.00
2023-02-09T16:08:28.533Z,100.00
2023-02-09T16:10:58.343Z,100.00
2023-02-09T16:13:28.276Z,100.00
2023-02-09T16:16:11.117Z,100.00
2023-02-09T16:18:46.024Z,100.00
2023-02-09T16:21:22.838Z,100.00
2023-02-09T16:23:57.621Z,100.00
2023-02-09T16:26:29.715Z,100.00
2023-02-09T16:29:01.303Z,100.00
2023-02-09T16:31:34.703Z,100.00
2023-02-09T16:34:04.638Z,100.00
2023-02-09T16:36:34.794Z,100.00
2023-02-09T16:39:09.465Z,100.00
2023-02-09T16:41:51.680Z,100.00
2023-02-09T16:44:23.755Z,100.00
2023-02-09T16:46:56.631Z,100.00
2023-02-09T16:49:37.688Z,100.00
2023-02-09T16:52:16.959Z,100.00
2023-02-09T16:54:52.039Z,100.00
2023-02-09T16:57:25.410Z,100.00
2023-02-09T16:59:56.201Z,100.00
2023-02-09T17:02:51.962Z,100.00
2023-02-09T17:05:24.695Z,100.00
2023-02-09T17:07:56.721Z,100.00
2023-02-09T17:10:32.575Z,100.00
2023-02-09T17:13:04.813Z,100.00
2023-02-09T17:15:40.145Z,100.00
2023-02-09T17:18:12.396Z,100.00
2023-02-09T17:20:46.694Z,100.00
2023-02-09T17:23:23.261Z,100.00
2023-02-09T17:25:57.424Z,100.00
2023-02-09T17:28:28.504Z,100.00
2023-02-09T17:31:00.919Z,100.00
2023-02-09T17:33:34.448Z,100.00
2023-02-09T17:38:55.627Z,100.00
2023-02-09T17:41:33.116Z,100.00
2023-02-09T17:44:24.324Z,100.00
2023-02-09T17:46:59.076Z,100.00
2023-02-09T17:49:28.999Z,100.00
2023-02-09T17:51:58.799Z,100.00
2023-02-09T17:54:32.674Z,100.00
2023-02-09T17:57:05.721Z,100.00
2023-02-09T17:59:35.500Z,100.00
2023-02-09T18:02:05.571Z,100.00
2023-02-09T18:04:35.430Z,100.00
2023-02-09T18:07:05.270Z,100.00
2023-02-09T18:09:35.051Z,100.00
2023-02-09T18:12:16.727Z,100.00
2023-02-09T18:14:46.539Z,100.00
2023-02-09T18:17:16.789Z,100.00
2023-02-09T18:19:46.527Z,100.00
2023-02-09T18:22:20.040Z,100.00
2023-02-09T18:24:50.888Z,100.00
2023-02-09T18:27:25.734Z,100.00
2023-02-09T18:29:55.608Z,100.00
2023-02-09T18:32:25.788Z,100.00
2023-02-09T18:34:55.560Z,100.00
2023-02-09T18:37:25.685Z,100.00
2023-02-09T18:39:55.559Z,100.00
2023-02-09T18:42:28.321Z,100.00
2023-02-09T18:44:58.363Z,100.00
2023-02-09T18:47:28.162Z,100.00
2023-02-09T18:49:57.979Z,100.00
2023-02-09T18:52:28.051Z,100.00
2023-02-09T18:54:58.104Z,100.00
2023-02-09T18:57:30.697Z,100.00
2023-02-09T19:00:01.711Z,100.00
2023-02-09T19:02:31.622Z,100.00
2023-02-09T19:05:02.834Z,100.00
2023-02-09T19:07:32.711Z,100.00
2023-02-09T19:10:02.588Z,100.00
2023-02-09T19:12:35.348Z,100.00
2023-02-09T19:15:05.260Z,100.00
2023-02-09T19:17:35.044Z,100.00
2023-02-09T19:20:05.792Z,100.00
2023-02-09T19:22:35.597Z,100.00
2023-02-09T19:25:05.449Z,100.00
2023-02-09T19:27:38.488Z,100.00
2023-02-09T19:30:08.919Z,100.00
2023-02-09T19:32:39.332Z,100.00
2023-02-09T19:35:09.978Z,100.00
2023-02-09T19:37:41.992Z,100.00
2023-02-09T19:40:21.195Z,100.00
2023-02-09T19:42:53.555Z,100.00
2023-02-09T19:45:23.495Z,100.00
2023-02-09T19:47:53.292Z,100.00
2023-02-09T19:50:23.097Z,100.00
2023-02-09T19:52:53.218Z,100.00
2023-02-09T19:55:23.008Z,100.00
2023-02-09T19:57:55.467Z,100.00
2023-02-09T20:00:25.591Z,100.00
2023-02-09T20:02:55.434Z,100.00
2023-02-09T20:05:25.267Z,100.00
2023-02-09T20:07:55.036Z,100.00
2023-02-09T20:10:25.401Z,100.00
2023-02-09T20:12:57.868Z,100.00
2023-02-09T20:15:27.886Z,100.00
2023-02-09T20:17:57.981Z,100.00
2023-02-09T20:20:27.721Z,100.00
2023-02-09T20:22:57.526Z,100.00
2023-02-09T20:25:27.392Z,100.00
2023-02-09T20:28:00.092Z,100.00
2023-02-09T20:30:29.918Z,100.00
2023-02-09T20:32:59.687Z,100.00
2023-02-09T20:35:29.884Z,100.00
2023-02-09T20:37:59.682Z,100.00
2023-02-09T20:40:30.975Z,100.00
2023-02-09T20:43:15.731Z,100.00
2023-02-09T20:45:58.033Z,100.00
2023-02-09T20:48:27.891Z,100.00
2023-02-09T20:50:57.648Z,100.00
2023-02-09T20:53:27.420Z,100.00
2023-02-09T20:55:58.703Z,100.00
2023-02-09T20:58:31.066Z,100.00
2023-02-09T21:01:00.834Z,100.00
2023-02-09T21:03:30.683Z,100.00
2023-02-09T21:06:00.456Z,100.00
2023-02-09T21:08:30.238Z,100.00
2023-02-09T21:11:01.570Z,100.00
2023-02-09T21:13:33.998Z,100.00
2023-02-09T21:16:04.295Z,100.00
2023-02-09T21:18:34.157Z,100.00
2023-02-09T21:21:05.999Z,100.00
2023-02-09T21:23:36.007Z,100.00
2023-02-09T21:26:06.967Z,100.00
2023-02-09T21:28:39.763Z,100.00
2023-02-09T21:31:12.791Z,100.00
2023-02-09T21:33:42.906Z,100.00
2023-02-09T21:36:13.072Z,100.00
2023-02-09T21:38:44.203Z,100.00
2023-02-09T21:41:35.981Z,100.00
2023-02-09T21:44:10.032Z,100.00
2023-02-09T21:46:39.964Z,100.00
2023-02-09T21:49:09.801Z,100.00
2023-02-09T21:51:39.696Z,100.00
2023-02-09T21:54:09.602Z,100.00
2023-02-09T21:56:39.346Z,100.00
2023-02-09T21:59:12.238Z,100.00
2023-02-09T22:01:42.685Z,100.00
2023-02-09T22:04:12.651Z,100.00
2023-02-09T22:06:42.518Z,100.00
2023-02-09T22:09:12.284Z,100.00
2023-02-09T22:11:42.348Z,100.00
2023-02-09T22:14:14.765Z,100.00
2023-02-09T22:16:46.839Z,100.00
2023-02-09T22:19:16.840Z,100.00
2023-02-09T22:21:46.641Z,100.00
2023-02-09T22:24:17.544Z,100.00
2023-02-09T22:26:47.690Z,100.00
2023-02-09T22:29:20.661Z,100.00
2023-02-09T22:31:50.765Z,100.00
2023-02-09T22:34:20.600Z,100.00
2023-02-09T22:36:54.265Z,100.00
2023-02-09T22:39:24.959Z,100.00
2023-02-09T22:41:58.914Z,100.00
2023-02-09T22:44:32.295Z,100.00
2023-02-09T22:47:02.109Z,100.00
2023-02-09T22:49:31.975Z,100.00
2023-02-09T22:52:01.789Z,100.00
2023-02-09T22:54:31.597Z,100.00
2023-02-09T22:57:01.418Z,100.00
2023-02-09T22:59:36.313Z,100.00
2023-02-09T23:02:06.446Z,100.00
2023-02-09T23:04:36.258Z,100.00
2023-02-09T23:07:06.932Z,100.00
2023-02-09T23:09:36.813Z,100.00
2023-02-09T23:12:06.901Z,100.00
2023-02-09T23:14:39.334Z,100.00
2023-02-09T23:17:09.102Z,100.00
2023-02-09T23:19:40.645Z,100.00
2023-02-09T23:22:10.448Z,100.00
2023-02-09T23:24:40.244Z,100.00
2023-02-09T23:27:10.002Z,100.00
2023-02-09T23:29:42.785Z,100.00
2023-02-09T23:32:12.584Z,100.00
2023-02-09T23:34:42.382Z,100.00
2023-02-09T23:37:18.670Z,100.00
2023-02-09T23:39:58.445Z,100.00
2023-02-09T23:42:28.207Z,100.00
2023-02-09T23:45:00.598Z,100.00
2023-02-09T23:47:30.366Z,100.00
2023-02-09T23:50:00.196Z,100.00
2023-02-09T23:52:30.388Z,100.00
2023-02-09T23:55:00.257Z,100.00
2023-02-09T23:57:31.160Z,100.00
